createdAt,value
2023-05-01T00:01:47.663Z,5.60
2023-05-01T00:12:51.346Z,5.03
2023-05-01T00:19:12.773Z,4.30
2023-05-01T00:21:39.237Z,4.57
2023-05-01T00:24:06.035Z,5.30
2023-05-01T00:30:19.655Z,9.88
2023-05-01T00:32:46.232Z,5.10
2023-05-01T00:35:13.311Z,4.28
2023-05-01T00:37:39.891Z,4.20
2023-05-01T00:40:07.235Z,4.82
2023-05-01T00:46:21.785Z,5.43
2023-05-01T00:48:48.568Z,4.45
2023-05-01T00:51:15.665Z,4.45
2023-05-01T00:57:59.325Z,5.20
2023-05-01T01:00:25.892Z,4.55
2023-05-01T01:02:52.576Z,7.80
2023-05-01T01:05:24.409Z,5.05
2023-05-01T01:08:05.602Z,5.32
2023-05-01T01:11:08.372Z,4.13
2023-05-01T01:13:47.030Z,4.65
2023-05-01T01:20:27.072Z,4.97
2023-05-01T01:31:50.013Z,5.93
2023-05-01T01:34:33.434Z,4.53
2023-05-01T01:37:55.549Z,5.18
2023-05-01T01:40:31.926Z,4.32
2023-05-01T01:54:48.736Z,4.82
2023-05-01T01:57:18.635Z,8.10
2023-05-01T02:04:20.481Z,4.50
2023-05-01T02:22:09.273Z,3.97
2023-05-01T02:24:38.278Z,5.07
2023-05-01T02:28:03.722Z,3.97
2023-05-01T02:34:42.122Z,4.65
2023-05-01T02:37:36.453Z,4.13
2023-05-01T02:40:04.056Z,5.03
2023-05-01T02:50:05.711Z,5.70
2023-05-01T02:52:32.606Z,4.30
2023-05-01T02:58:48.501Z,4.75
2023-05-01T03:01:15.150Z,4.82
2023-05-01T03:08:07.238Z,5.90
2023-05-01T03:14:29.659Z,5.95
2023-05-01T03:16:56.669Z,4.90
2023-05-01T03:19:23.221Z,5.57
2023-05-01T03:21:49.739Z,6.70
2023-05-01T03:28:02.178Z,5.72
2023-05-01T03:30:28.784Z,5.95
2023-05-01T03:36:36.356Z,4.35
2023-05-01T03:39:02.850Z,5.07
2023-05-01T03:45:46.089Z,5.30
2023-05-01T03:56:16.833Z,4.57
2023-05-01T03:58:43.685Z,6.28
2023-05-01T04:04:57.662Z,5.13
2023-05-01T04:07:24.517Z,6.38
2023-05-01T04:14:25.380Z,5.78
2023-05-01T04:16:52.105Z,5.63
2023-05-01T04:19:18.585Z,5.55
2023-05-01T04:22:05.751Z,4.85
2023-05-01T04:24:32.579Z,5.35
2023-05-01T04:26:59.307Z,5.57
2023-05-01T04:29:25.929Z,5.55
2023-05-01T04:31:52.569Z,6.10
2023-05-01T04:34:19.718Z,4.82
2023-05-01T04:36:46.286Z,5.00
2023-05-01T04:39:13.009Z,7.20
2023-05-01T04:41:39.568Z,6.95
2023-05-01T04:44:06.041Z,5.35
2023-05-01T04:46:33.492Z,5.35
2023-05-01T04:48:59.980Z,6.30
2023-05-01T04:55:54.643Z,5.13
2023-05-01T05:01:58.471Z,5.10
2023-05-01T05:24:30.840Z,5.93
2023-05-01T05:39:47.954Z,5.68
2023-05-01T05:46:45.865Z,7.28
2023-05-01T05:49:12.491Z,5.80
2023-05-01T05:51:39.062Z,5.00
2023-05-01T05:54:05.666Z,4.50
2023-05-01T05:56:32.429Z,4.88
2023-05-01T05:59:02.958Z,4.40
2023-05-01T06:01:31.636Z,4.63
2023-05-01T06:04:58.961Z,5.30
2023-05-01T06:11:12.838Z,5.53
2023-05-01T06:13:39.691Z,4.70
2023-05-01T06:19:48.270Z,4.22
2023-05-01T06:22:26.340Z,5.75
2023-05-01T06:29:20.826Z,7.20
2023-05-01T06:32:00.930Z,4.47
2023-05-01T06:37:56.135Z,5.35
2023-05-01T06:55:39.328Z,4.00
2023-05-01T07:02:26.666Z,3.25
2023-05-01T07:04:56.790Z,4.55
2023-05-01T07:11:35.346Z,3.67
2023-05-01T07:14:01.969Z,3.28
2023-05-01T07:20:13.508Z,2.55
2023-05-01T07:32:16.322Z,2.80
2023-05-01T07:38:50.593Z,3.00
2023-05-01T07:41:17.162Z,2.70
2023-05-01T07:43:43.696Z,4.65
2023-05-01T07:46:10.511Z,2.85
2023-05-01T07:48:39.023Z,3.17
2023-05-01T07:51:08.900Z,2.40
2023-05-01T07:56:09.764Z,2.55
2023-05-01T07:58:37.767Z,4.90
2023-05-01T08:01:11.889Z,2.10
2023-05-01T08:08:34.463Z,3.00
2023-05-01T08:11:01.068Z,2.55
2023-05-01T08:13:27.605Z,6.75
2023-05-01T08:15:54.288Z,3.40
2023-05-01T08:18:21.365Z,4.35
2023-05-01T08:20:48.606Z,3.13
2023-05-01T08:23:16.580Z,3.55
2023-05-01T08:25:43.469Z,2.85
2023-05-01T08:28:10.309Z,2.65
2023-05-01T08:30:36.930Z,3.33
2023-05-01T08:33:03.717Z,3.10
2023-05-01T08:35:30.348Z,2.00
2023-05-01T08:37:58.065Z,3.45
2023-05-01T08:40:26.392Z,2.92
2023-05-01T08:42:54.832Z,1.73
2023-05-01T08:45:24.700Z,1.73
2023-05-01T08:47:53.935Z,2.10
2023-05-01T08:52:53.074Z,4.60
2023-05-01T08:55:20.833Z,2.20
2023-05-01T08:57:48.610Z,1.98
2023-05-01T09:00:19.453Z,1.88
2023-05-01T09:02:48.499Z,2.10
2023-05-01T09:05:19.490Z,3.47
2023-05-01T09:07:46.654Z,5.18
2023-05-01T09:10:15.428Z,3.45
2023-05-01T09:12:44.919Z,4.78
2023-05-01T09:17:38.584Z,2.58
2023-05-01T09:20:06.339Z,1.70
2023-05-01T09:22:33.896Z,2.47
2023-05-01T09:25:00.929Z,9.00
2023-05-01T09:27:27.826Z,3.30
2023-05-01T09:29:54.469Z,3.17
2023-05-01T09:32:23.527Z,2.78
2023-05-01T09:34:51.708Z,4.07
2023-05-01T09:37:32.502Z,1.85
2023-05-01T09:40:09.477Z,2.10
2023-05-01T09:42:39.539Z,3.92
2023-05-01T09:45:17.401Z,2.10
2023-05-01T09:47:45.302Z,2.65
2023-05-01T09:50:29.613Z,3.33
2023-05-01T09:52:56.248Z,5.63
2023-05-01T09:55:25.393Z,2.47
2023-05-01T09:57:52.994Z,2.70
2023-05-01T10:00:22.133Z,2.50
2023-05-01T10:05:16.257Z,4.13
2023-05-01T10:07:59.673Z,5.53
2023-05-01T10:10:26.559Z,2.30
2023-05-01T10:12:53.498Z,1.92
2023-05-01T10:15:26.513Z,2.55
2023-05-01T10:17:54.736Z,2.30
2023-05-01T10:20:21.649Z,2.58
2023-05-01T10:22:48.896Z,3.92
2023-05-01T10:25:17.631Z,3.80
2023-05-01T10:27:44.312Z,3.45
2023-05-01T10:30:11.427Z,2.80
2023-05-01T10:32:41.783Z,2.47
2023-05-01T10:35:19.798Z,3.60
2023-05-01T10:37:59.805Z,3.42
2023-05-01T10:40:41.320Z,2.53
2023-05-01T10:43:28.674Z,3.95
2023-05-01T10:46:20.992Z,2.20
2023-05-01T10:48:47.538Z,3.15
2023-05-01T10:51:17.152Z,2.78
2023-05-01T10:53:45.550Z,2.85
2023-05-01T10:56:25.314Z,4.23
2023-05-01T10:58:59.523Z,3.35
2023-05-01T11:01:31.526Z,3.03
2023-05-01T11:04:04.293Z,4.03
2023-05-01T11:06:31.703Z,3.35
2023-05-01T11:08:58.430Z,3.33
2023-05-01T11:11:25.104Z,3.65
2023-05-01T11:14:08.656Z,4.57
2023-05-01T11:16:38.957Z,4.47
2023-05-01T11:19:07.649Z,2.97
2023-05-01T11:21:36.639Z,2.95
2023-05-01T11:24:04.621Z,3.25
2023-05-01T11:26:32.654Z,3.50
2023-05-01T11:29:01.260Z,4.85
2023-05-01T11:31:29.091Z,3.83
2023-05-01T11:34:00.334Z,3.17
2023-05-01T11:36:28.296Z,3.08
2023-05-01T11:38:56.877Z,3.13
2023-05-01T11:41:24.799Z,3.65
2023-05-01T11:43:56.572Z,4.25
2023-05-01T11:46:31.980Z,4.13
2023-05-01T11:49:01.230Z,4.00
2023-05-01T11:54:07.372Z,5.55
2023-05-01T11:56:35.065Z,3.08
2023-05-01T11:59:16.502Z,2.95
2023-05-01T12:01:45.499Z,3.53
2023-05-01T12:04:13.306Z,3.05
2023-05-01T12:06:45.717Z,2.50
2023-05-01T12:09:20.324Z,3.25
2023-05-01T12:11:50.533Z,3.05
2023-05-01T12:14:19.466Z,3.38
2023-05-01T12:16:46.963Z,5.15
2023-05-01T12:19:15.166Z,3.50
2023-05-01T12:21:42.036Z,4.40
2023-05-01T12:24:17.924Z,2.80
2023-05-01T12:26:45.484Z,6.85
2023-05-01T12:29:12.496Z,3.80
2023-05-01T12:31:49.873Z,5.07
2023-05-01T12:34:16.743Z,4.53
2023-05-01T12:36:53.351Z,4.47
2023-05-01T12:39:20.502Z,4.28
2023-05-01T12:41:49.595Z,3.60
2023-05-01T12:44:19.242Z,5.45
2023-05-01T12:46:53.154Z,3.05
2023-05-01T12:49:21.171Z,3.42
2023-05-01T12:51:52.570Z,4.35
2023-05-01T12:54:34.085Z,4.70
2023-05-01T12:57:11.049Z,3.88
2023-05-01T12:59:39.740Z,3.60
2023-05-01T13:02:07.685Z,3.17
2023-05-01T13:04:35.199Z,4.60
2023-05-01T13:07:02.656Z,7.28
2023-05-01T13:09:32.581Z,5.55
2023-05-01T13:12:05.911Z,2.95
2023-05-01T13:14:43.385Z,3.53
2023-05-01T13:17:11.710Z,3.67
2023-05-01T13:19:39.382Z,4.55
2023-05-01T13:22:06.180Z,4.28
2023-05-01T13:24:44.681Z,4.28
2023-05-01T13:27:12.460Z,4.22
2023-05-01T13:29:39.892Z,3.70
2023-05-01T13:32:10.273Z,3.45
2023-05-01T13:34:37.691Z,3.80
2023-05-01T13:37:04.217Z,3.28
2023-05-01T13:39:30.786Z,5.10
2023-05-01T13:41:57.633Z,3.78
2023-05-01T13:44:24.155Z,3.75
2023-05-01T13:46:50.677Z,3.80
2023-05-01T13:49:21.792Z,3.70
2023-05-01T13:51:48.824Z,4.07
2023-05-01T13:54:16.798Z,4.30
2023-05-01T13:56:43.313Z,4.63
2023-05-01T14:07:08.618Z,3.55
2023-05-01T14:09:36.507Z,3.63
2023-05-01T14:15:50.416Z,4.95
2023-05-01T14:18:20.780Z,3.67
2023-05-01T14:20:54.062Z,3.25
2023-05-01T14:23:26.232Z,4.00
2023-05-01T14:25:52.723Z,3.90
2023-05-01T14:28:37.162Z,3.50
2023-05-01T14:31:32.571Z,4.00
2023-05-01T14:37:01.993Z,4.15
2023-05-01T14:39:32.966Z,5.53
2023-05-01T14:42:06.413Z,4.78
2023-05-01T14:44:32.923Z,4.80
2023-05-01T14:47:00.353Z,5.10
2023-05-01T14:49:26.972Z,7.80
2023-05-01T14:51:54.126Z,4.25
2023-05-01T14:54:21.151Z,4.90
2023-05-01T14:56:48.944Z,4.60
2023-05-01T14:59:16.373Z,4.47
2023-05-01T15:01:43.982Z,3.70
2023-05-01T15:04:11.172Z,3.75
2023-05-01T15:06:37.907Z,3.85
2023-05-01T15:09:07.238Z,4.05
2023-05-01T15:11:33.758Z,3.53
2023-05-01T15:14:00.397Z,4.22
2023-05-01T15:16:27.819Z,5.38
2023-05-01T15:18:54.584Z,7.15
2023-05-01T15:21:21.098Z,4.38
2023-05-01T15:23:47.771Z,5.50
2023-05-01T15:26:14.325Z,4.80
2023-05-01T15:28:40.902Z,5.03
2023-05-01T15:31:07.532Z,5.38
2023-05-01T15:33:34.186Z,5.78
2023-05-01T15:36:00.998Z,4.90
2023-05-01T15:38:28.374Z,4.43
2023-05-01T15:40:55.068Z,5.35
2023-05-01T15:43:22.809Z,4.95
2023-05-01T15:45:50.269Z,4.88
2023-05-01T15:48:16.945Z,4.70
2023-05-01T15:50:43.435Z,4.10
2023-05-01T15:53:10.006Z,4.65
2023-05-01T15:55:36.803Z,4.90
2023-05-01T15:58:03.599Z,4.38
2023-05-01T16:00:30.934Z,3.80
2023-05-01T16:02:57.539Z,4.15
2023-05-01T16:05:26.904Z,4.40
2023-05-01T16:08:00.474Z,4.70
2023-05-01T16:10:27.678Z,4.55
2023-05-01T16:12:54.369Z,4.47
2023-05-01T16:15:22.752Z,4.80
2023-05-01T16:17:51.394Z,7.22
2023-05-01T16:20:18.101Z,6.15
2023-05-01T16:22:44.786Z,4.07
2023-05-01T16:25:12.163Z,3.92
2023-05-01T16:27:44.197Z,4.07
2023-05-01T16:30:14.275Z,4.60
2023-05-01T16:32:41.614Z,4.07
2023-05-01T16:35:11.989Z,5.05
2023-05-01T16:37:39.539Z,3.70
2023-05-01T16:40:07.487Z,4.13
2023-05-01T16:42:34.207Z,3.30
2023-05-01T16:45:13.480Z,3.33
2023-05-01T16:47:40.008Z,3.30
2023-05-01T16:50:08.599Z,3.97
2023-05-01T16:52:35.272Z,3.85
2023-05-01T16:55:01.960Z,3.80
2023-05-01T16:57:28.896Z,3.90
2023-05-01T16:59:55.359Z,3.63
2023-05-01T18:37:53.854Z,4.05
2023-05-01T18:44:13.247Z,5.13
2023-05-01T18:46:39.881Z,4.57
2023-05-01T19:10:32.411Z,5.57
2023-05-01T19:13:01.476Z,6.00
2023-05-01T19:22:42.478Z,7.20
2023-05-01T19:31:53.587Z,6.47
2023-05-01T19:38:11.262Z,8.00
2023-05-01T19:40:39.648Z,8.80
2023-05-01T19:53:45.463Z,7.38
2023-05-01T19:59:59.923Z,10.88
2023-05-01T20:02:26.792Z,8.07
2023-05-01T20:08:44.388Z,7.63
2023-05-01T20:11:11.357Z,7.68
2023-05-01T20:29:26.997Z,7.50
2023-05-01T20:36:25.337Z,7.90
2023-05-01T20:38:53.161Z,7.47
2023-05-01T20:45:21.226Z,9.13
2023-05-01T20:47:48.778Z,9.27
2023-05-01T20:50:52.456Z,9.27
2023-05-01T20:57:00.164Z,8.88
2023-05-01T20:59:26.701Z,9.07
2023-05-01T23:31:20.902Z,1.85
2023-05-01T23:33:47.427Z,1.48
2023-05-01T23:47:17.165Z,1.58
2023-05-01T23:54:16.244Z,1.90
2023-05-01T23:56:42.811Z,1.35
2023-05-01T23:59:09.304Z,1.60
